createdAt,value
2023-01-20T00:02:00.407Z,0.66
2023-01-20T00:04:29.487Z,0.68
2023-01-20T00:06:57.942Z,0.62
2023-01-20T00:09:25.998Z,0.69
2023-01-20T00:11:53.717Z,0.67
2023-01-20T00:14:21.483Z,0.61
2023-01-20T00:16:49.454Z,0.62
2023-01-20T00:19:17.271Z,0.63
2023-01-20T00:21:46.260Z,0.60
2023-01-20T00:24:13.982Z,0.69
2023-01-20T00:26:42.728Z,0.69
2023-01-20T00:29:11.004Z,0.68
2023-01-20T00:31:39.156Z,0.67
2023-01-20T00:34:06.943Z,0.68
2023-01-20T00:36:35.208Z,0.68
2023-01-20T00:39:05.485Z,0.74
2023-01-20T00:41:33.584Z,0.77
2023-01-20T00:44:03.604Z,0.77
2023-01-20T00:46:31.413Z,0.73
2023-01-20T00:48:59.415Z,0.80
2023-01-20T00:51:27.228Z,0.83
2023-01-20T00:53:55.263Z,0.78
2023-01-20T00:56:24.390Z,0.84
2023-01-20T00:58:53.010Z,0.81
2023-01-20T01:01:20.896Z,0.77
2023-01-20T01:03:48.819Z,0.82
2023-01-20T01:06:32.361Z,0.84
2023-01-20T01:09:04.016Z,0.86
2023-01-20T01:11:33.179Z,0.85
2023-01-20T01:14:00.979Z,0.82
2023-01-20T01:20:13.709Z,0.83
2023-01-20T01:22:41.920Z,0.83
2023-01-20T01:25:09.956Z,0.88
2023-01-20T01:27:39.088Z,0.86
2023-01-20T01:30:08.072Z,0.87
2023-01-20T01:32:35.874Z,0.89
2023-01-20T01:35:03.676Z,0.88
2023-01-20T01:37:31.430Z,0.87
2023-01-20T01:39:59.190Z,0.90
2023-01-20T01:42:29.320Z,0.89
2023-01-20T01:45:22.685Z,0.92
2023-01-20T01:47:53.862Z,0.94
2023-01-20T01:50:25.338Z,0.94
2023-01-20T01:52:55.030Z,0.89
2023-01-20T01:55:24.549Z,1.04
2023-01-20T01:57:53.273Z,1.01
2023-01-20T02:00:22.913Z,0.93
2023-01-20T02:02:51.156Z,0.94
2023-01-20T02:05:19.357Z,0.95
2023-01-20T02:07:48.672Z,1.01
2023-01-20T02:10:18.713Z,1.02
2023-01-20T02:12:49.751Z,0.97
2023-01-20T02:15:22.781Z,1.01
2023-01-20T02:18:06.539Z,1.00
2023-01-20T02:21:06.015Z,1.00
2023-01-20T02:23:47.465Z,0.98
2023-01-20T02:30:18.910Z,0.96
2023-01-20T02:32:55.743Z,1.03
2023-01-20T02:35:26.402Z,1.02
2023-01-20T02:38:15.433Z,1.00
2023-01-20T02:40:54.575Z,0.95
2023-01-20T02:43:29.167Z,0.94
2023-01-20T02:46:01.242Z,0.93
2023-01-20T02:48:35.419Z,0.95
2023-01-20T02:54:05.093Z,0.92
2023-01-20T02:56:33.347Z,0.95
2023-01-20T02:59:03.858Z,0.94
2023-01-20T03:01:33.610Z,0.97
2023-01-20T03:04:04.380Z,0.95
2023-01-20T03:06:35.962Z,0.92
2023-01-20T03:09:07.525Z,0.94
2023-01-20T03:11:37.552Z,0.93
2023-01-20T03:14:08.732Z,0.96
2023-01-20T03:16:36.832Z,0.97
2023-01-20T03:19:06.188Z,0.99
2023-01-20T03:21:37.878Z,0.98
2023-01-20T03:24:06.881Z,0.97
2023-01-20T03:26:35.310Z,0.96
2023-01-20T03:29:06.664Z,0.99
2023-01-20T03:31:37.680Z,1.03
2023-01-20T03:34:14.418Z,1.01
2023-01-20T03:36:43.777Z,1.02
2023-01-20T03:39:11.843Z,0.99
2023-01-20T03:41:52.471Z,1.00
2023-01-20T03:44:23.550Z,0.98
2023-01-20T03:46:54.877Z,0.98
2023-01-20T03:49:28.148Z,0.95
2023-01-20T03:52:01.040Z,0.96
2023-01-20T03:57:32.584Z,1.02
2023-01-20T04:00:00.648Z,1.00
2023-01-20T04:02:32.432Z,1.01
2023-01-20T04:05:02.686Z,1.03
2023-01-20T04:07:32.111Z,1.03
2023-01-20T04:10:04.371Z,1.08
2023-01-20T04:12:32.213Z,1.07
2023-01-20T04:17:56.430Z,1.06
2023-01-20T04:20:27.802Z,1.04
2023-01-20T04:28:45.293Z,1.03
2023-01-20T04:31:28.942Z,1.06
2023-01-20T04:33:57.382Z,1.06
2023-01-20T04:36:26.566Z,1.06
2023-01-20T04:38:54.455Z,1.09
2023-01-20T04:41:24.288Z,1.10
2023-01-20T04:43:52.238Z,1.06
2023-01-20T04:46:19.892Z,1.09
2023-01-20T04:48:47.748Z,1.06
2023-01-20T04:51:16.580Z,1.05
2023-01-20T04:53:45.993Z,1.05
2023-01-20T04:56:16.647Z,1.04
2023-01-20T04:58:45.795Z,1.03
2023-01-20T05:01:13.849Z,1.01
2023-01-20T05:03:41.789Z,1.02
2023-01-20T05:06:11.268Z,1.05
2023-01-20T05:08:39.112Z,1.02
2023-01-20T05:11:08.424Z,1.06
2023-01-20T05:13:39.294Z,1.06
2023-01-20T05:16:07.890Z,1.10
2023-01-20T05:18:35.873Z,1.07
2023-01-20T05:21:04.931Z,1.10
2023-01-20T05:23:34.437Z,1.05
2023-01-20T05:26:02.124Z,1.01
2023-01-20T05:28:31.463Z,1.05
2023-01-20T05:30:59.751Z,1.04
2023-01-20T05:33:27.816Z,1.06
2023-01-20T05:35:56.118Z,1.04
2023-01-20T05:38:23.973Z,1.03
2023-01-20T05:40:51.732Z,1.04
2023-01-20T05:43:20.277Z,1.04
2023-01-20T05:45:49.562Z,1.02
2023-01-20T05:48:17.483Z,1.06
2023-01-20T05:50:48.668Z,1.09
2023-01-20T05:53:17.100Z,1.03
2023-01-20T05:55:45.122Z,1.05
2023-01-20T05:58:14.405Z,0.99
2023-01-20T06:00:42.433Z,1.01
2023-01-20T06:03:11.601Z,1.03
2023-01-20T06:05:39.234Z,1.03
2023-01-20T06:08:07.529Z,1.03
2023-01-20T06:10:35.436Z,0.96
2023-01-20T06:13:03.328Z,1.00
2023-01-20T06:15:31.236Z,1.00
2023-01-20T06:17:59.176Z,0.95
2023-01-20T06:20:29.041Z,0.96
2023-01-20T06:22:57.033Z,0.94
2023-01-20T06:28:19.306Z,1.02
2023-01-20T06:30:47.181Z,1.00
2023-01-20T06:33:15.200Z,1.01
2023-01-20T06:35:44.336Z,1.03
2023-01-20T06:38:13.257Z,0.98
2023-01-20T06:40:41.213Z,0.97
2023-01-20T06:43:09.140Z,1.00
2023-01-20T06:45:38.389Z,1.04
2023-01-20T06:48:08.594Z,1.04
2023-01-20T06:50:36.509Z,1.00
2023-01-20T06:53:05.807Z,0.99
2023-01-20T06:55:33.603Z,1.01
2023-01-20T06:58:02.299Z,0.97
2023-01-20T07:00:30.388Z,0.99
2023-01-20T07:02:58.240Z,1.01
2023-01-20T07:05:26.111Z,1.01
2023-01-20T07:07:53.909Z,1.03
2023-01-20T07:10:23.210Z,1.03
2023-01-20T07:12:51.787Z,0.99
2023-01-20T07:15:19.795Z,1.02
2023-01-20T07:17:47.792Z,1.00
2023-01-20T07:20:15.762Z,1.01
2023-01-20T07:22:43.631Z,1.00
2023-01-20T07:25:11.532Z,1.00
2023-01-20T07:27:40.851Z,0.99
2023-01-20T07:30:10.215Z,0.94
2023-01-20T07:32:38.798Z,0.94
2023-01-20T07:35:07.496Z,1.04
2023-01-20T07:37:35.323Z,0.95
2023-01-20T07:40:03.541Z,1.00
2023-01-20T07:42:31.288Z,1.02
2023-01-20T07:45:01.692Z,1.02
2023-01-20T07:47:37.654Z,1.01
2023-01-20T07:50:08.775Z,1.00
2023-01-20T07:52:39.666Z,1.02
2023-01-20T07:55:10.487Z,1.04
2023-01-20T07:57:38.500Z,1.07
2023-01-20T08:00:10.770Z,1.07
2023-01-20T08:02:39.420Z,1.14
2023-01-20T08:07:53.014Z,1.15
2023-01-20T08:10:24.507Z,1.15
2023-01-20T08:12:55.862Z,1.14
2023-01-20T08:16:09.246Z,1.21
2023-01-20T08:22:55.336Z,1.35
2023-01-20T08:25:23.435Z,1.32
2023-01-20T08:28:42.779Z,1.29
2023-01-20T08:31:31.237Z,1.40
2023-01-20T08:33:59.642Z,1.45
2023-01-20T08:36:58.672Z,1.45
2023-01-20T08:39:26.794Z,1.53
2023-01-20T08:41:54.858Z,1.63
2023-01-20T08:44:22.757Z,1.59
2023-01-20T08:46:55.173Z,1.73
2023-01-20T08:49:23.659Z,1.71
2023-01-20T08:51:51.922Z,1.66
2023-01-20T08:54:19.875Z,1.70
2023-01-20T08:56:51.227Z,1.66
2023-01-20T08:59:19.158Z,1.70
2023-01-20T09:01:46.972Z,1.81
2023-01-20T09:04:16.155Z,1.76
2023-01-20T09:06:45.921Z,1.86
2023-01-20T09:09:15.135Z,1.69
2023-01-20T09:11:44.789Z,1.77
2023-01-20T09:14:12.653Z,1.89
2023-01-20T09:16:40.388Z,1.97
2023-01-20T09:19:08.525Z,2.00
2023-01-20T09:21:37.590Z,1.97
2023-01-20T09:24:06.197Z,1.90
2023-01-20T09:26:38.594Z,1.79
2023-01-20T09:29:10.408Z,2.11
2023-01-20T09:31:38.776Z,2.11
2023-01-20T09:34:06.482Z,1.89
2023-01-20T09:36:34.343Z,1.86
2023-01-20T09:39:24.312Z,1.97
2023-01-20T09:42:10.030Z,1.95
2023-01-20T09:44:50.364Z,2.04
2023-01-20T09:51:48.580Z,2.17
2023-01-20T09:57:10.393Z,2.27
2023-01-20T10:02:29.244Z,2.09
2023-01-20T10:05:00.328Z,2.18
2023-01-20T10:07:33.971Z,2.08
2023-01-20T10:10:10.494Z,2.11
2023-01-20T10:12:42.106Z,1.95
2023-01-20T10:15:12.632Z,1.98
2023-01-20T10:17:44.284Z,1.92
2023-01-20T10:20:19.202Z,1.96
2023-01-20T10:22:50.211Z,1.98
2023-01-20T10:25:22.570Z,2.06
2023-01-20T10:27:54.110Z,2.17
2023-01-20T10:30:25.272Z,2.26
2023-01-20T10:32:56.327Z,2.25
2023-01-20T10:35:27.176Z,2.11
2023-01-20T10:37:55.781Z,2.20
2023-01-20T10:40:35.327Z,2.30
2023-01-20T10:43:11.567Z,2.24
2023-01-20T10:45:48.506Z,2.20
2023-01-20T10:48:27.357Z,2.46
2023-01-20T10:50:57.575Z,2.34
2023-01-20T10:53:44.125Z,2.35
2023-01-20T10:56:24.925Z,2.37
2023-01-20T10:58:53.300Z,2.45
2023-01-20T11:01:21.701Z,2.40
2023-01-20T11:03:50.172Z,2.38
2023-01-20T11:06:20.666Z,2.40
2023-01-20T11:08:48.868Z,2.38
2023-01-20T11:11:20.771Z,2.37
2023-01-20T11:13:48.876Z,2.35
2023-01-20T11:16:19.066Z,2.43
2023-01-20T11:18:57.519Z,2.49
2023-01-20T11:21:26.404Z,2.41
2023-01-20T11:23:56.878Z,2.41
2023-01-20T11:26:28.413Z,2.43
2023-01-20T11:28:58.181Z,2.31
2023-01-20T11:31:37.176Z,2.37
2023-01-20T11:34:21.012Z,2.37
2023-01-20T11:36:48.636Z,2.41
2023-01-20T11:39:26.583Z,2.50
2023-01-20T11:42:11.988Z,2.66
2023-01-20T11:44:43.171Z,2.54
2023-01-20T11:47:24.606Z,2.65
2023-01-20T11:50:26.029Z,2.54
2023-01-20T11:52:53.500Z,2.76
2023-01-20T11:55:23.386Z,2.83
2023-01-20T11:57:56.975Z,2.94
2023-01-20T12:00:39.032Z,3.16
2023-01-20T12:03:28.841Z,2.92
2023-01-20T12:06:00.954Z,2.84
2023-01-20T12:08:31.584Z,2.97
2023-01-20T12:11:03.746Z,2.92
2023-01-20T12:13:57.481Z,2.83
2023-01-20T12:16:27.023Z,2.93
2023-01-20T12:19:02.213Z,2.88
2023-01-20T12:21:35.210Z,2.76
2023-01-20T12:24:07.868Z,2.87
2023-01-20T12:26:35.974Z,2.84
2023-01-20T12:29:08.995Z,2.87
2023-01-20T12:31:36.910Z,2.92
2023-01-20T12:34:06.128Z,3.16
2023-01-20T12:37:00.284Z,3.18
2023-01-20T12:39:44.951Z,3.22
2023-01-20T12:42:29.141Z,3.28
2023-01-20T12:44:59.905Z,3.45
2023-01-20T12:47:40.181Z,3.36
2023-01-20T12:50:19.747Z,3.18
2023-01-20T12:52:58.520Z,3.10
2023-01-20T12:55:46.987Z,3.12
2023-01-20T12:58:22.028Z,3.22
2023-01-20T13:01:18.194Z,3.15
2023-01-20T13:04:12.882Z,3.36
2023-01-20T13:06:50.713Z,3.27
2023-01-20T13:09:35.926Z,3.35
2023-01-20T13:12:11.794Z,3.21
2023-01-20T13:14:43.215Z,3.25
2023-01-20T13:17:20.764Z,3.17
2023-01-20T13:19:49.437Z,3.22
2023-01-20T13:22:19.226Z,3.05
2023-01-20T13:24:49.153Z,3.31
2023-01-20T13:27:21.811Z,3.19
2023-01-20T13:29:57.776Z,3.11
2023-01-20T13:32:32.319Z,3.25
2023-01-20T13:35:01.599Z,3.16
2023-01-20T13:37:35.701Z,3.17
2023-01-20T13:40:03.665Z,3.29
2023-01-20T13:42:49.596Z,3.30
2023-01-20T13:45:25.722Z,3.32
2023-01-20T13:47:58.674Z,3.23
2023-01-20T13:50:29.688Z,3.18
2023-01-20T13:53:15.005Z,3.09
2023-01-20T13:56:08.042Z,3.14
2023-01-20T13:58:36.210Z,3.22
2023-01-20T14:01:05.595Z,3.29
2023-01-20T14:03:36.424Z,3.11
2023-01-20T14:06:06.758Z,3.01
2023-01-20T14:08:39.895Z,2.94
2023-01-20T14:11:12.448Z,2.88
2023-01-20T14:13:40.691Z,2.84
2023-01-20T14:16:19.536Z,2.87
2023-01-20T14:18:49.055Z,2.81
2023-01-20T14:21:20.924Z,2.73
2023-01-20T14:23:48.782Z,2.82
2023-01-20T14:26:22.460Z,2.82
2023-01-20T14:28:51.921Z,2.80
2023-01-20T14:31:37.478Z,2.88
2023-01-20T14:34:24.229Z,2.80
2023-01-20T14:36:52.242Z,2.89
2023-01-20T14:39:21.727Z,2.83
2023-01-20T14:41:51.641Z,2.82
2023-01-20T14:44:21.425Z,2.82
2023-01-20T14:46:54.088Z,2.83
2023-01-20T14:49:32.816Z,2.76
2023-01-20T14:52:01.316Z,2.80
2023-01-20T14:54:38.748Z,2.83
2023-01-20T14:57:19.049Z,2.83
2023-01-20T14:59:46.872Z,2.81
2023-01-20T15:02:19.937Z,2.73
2023-01-20T15:04:49.062Z,2.76
2023-01-20T15:07:19.398Z,2.74
2023-01-20T15:09:52.811Z,2.70
2023-01-20T15:12:40.478Z,2.66
2023-01-20T15:15:14.603Z,2.67
2023-01-20T15:18:15.776Z,2.64
2023-01-20T15:20:46.499Z,2.59
2023-01-20T15:23:20.499Z,2.56
2023-01-20T15:25:48.245Z,2.48
2023-01-20T15:28:22.958Z,2.48
2023-01-20T15:30:50.657Z,2.34
2023-01-20T15:33:18.191Z,2.30
2023-01-20T15:35:47.106Z,2.37
2023-01-20T15:38:14.868Z,2.35
2023-01-20T15:40:42.433Z,2.29
2023-01-20T15:43:15.500Z,2.29
2023-01-20T15:45:43.245Z,2.29
2023-01-20T15:48:18.631Z,2.31
2023-01-20T15:50:48.088Z,2.24
2023-01-20T15:53:16.495Z,2.17
2023-01-20T15:55:49.269Z,2.09
2023-01-20T15:58:22.772Z,2.11
2023-01-20T16:00:50.861Z,2.01
2023-01-20T16:03:18.711Z,1.96
2023-01-20T16:05:48.896Z,1.80
2023-01-20T16:08:17.255Z,1.74
2023-01-20T16:10:45.374Z,1.57
2023-01-20T16:13:12.976Z,1.33
2023-01-20T16:15:42.874Z,1.37
2023-01-20T16:18:13.465Z,1.36
2023-01-20T16:20:41.905Z,1.25
2023-01-20T16:23:10.867Z,1.24
2023-01-20T16:25:38.489Z,1.22
2023-01-20T16:28:13.209Z,1.14
2023-01-20T16:30:41.306Z,1.06
2023-01-20T16:33:16.830Z,1.05
2023-01-20T16:35:44.759Z,1.09
2023-01-20T16:38:16.546Z,1.07
2023-01-20T16:40:47.694Z,0.78
2023-01-20T16:43:15.220Z,0.52
2023-01-20T16:45:43.295Z,0.43
2023-01-20T16:48:10.941Z,0.18
2023-01-20T16:50:38.613Z,0.00
2023-01-20T16:53:06.206Z,-0.25
2023-01-20T16:55:37.503Z,-0.24
2023-01-20T16:58:06.828Z,-0.38
2023-01-20T17:00:34.818Z,-0.50
2023-01-20T17:03:03.388Z,-0.55
2023-01-20T17:05:30.985Z,-0.47
2023-01-20T17:08:02.105Z,-0.45
2023-01-20T17:11:05.564Z,-0.50
2023-01-20T17:13:33.327Z,-0.63
2023-01-20T17:16:01.029Z,-0.66
2023-01-20T17:18:30.445Z,-0.67
2023-01-20T17:20:58.310Z,-0.76
2023-01-20T17:23:26.257Z,-0.77
2023-01-20T17:25:55.152Z,-0.88
2023-01-20T17:28:25.960Z,-1.03
2023-01-20T17:30:53.671Z,-1.01
2023-01-20T17:33:24.648Z,-0.93
2023-01-20T17:35:56.414Z,-0.91
2023-01-20T17:38:24.496Z,-1.08
2023-01-20T17:40:52.267Z,-1.22
2023-01-20T17:43:21.216Z,-1.35
2023-01-20T17:45:48.954Z,-1.42
2023-01-20T17:48:16.640Z,-1.45
2023-01-20T17:50:44.356Z,-1.25
2023-01-20T17:53:12.816Z,-1.01
2023-01-20T17:55:40.497Z,-1.05
2023-01-20T17:58:08.463Z,-1.20
2023-01-20T18:00:37.354Z,-1.43
2023-01-20T18:03:05.067Z,-1.61
2023-01-20T18:05:35.131Z,-1.67
2023-01-20T18:08:03.002Z,-1.74
2023-01-20T18:10:30.725Z,-1.80
2023-01-20T18:12:58.768Z,-1.90
2023-01-20T18:15:26.395Z,-1.98
2023-01-20T18:17:55.448Z,-1.90
2023-01-20T18:20:23.917Z,-1.95
2023-01-20T18:22:51.834Z,-2.05
2023-01-20T18:25:19.637Z,-2.08
2023-01-20T18:27:47.295Z,-2.08
2023-01-20T18:30:15.950Z,-2.11
2023-01-20T18:32:43.748Z,-2.07
2023-01-20T18:35:12.998Z,-2.19
2023-01-20T18:37:40.676Z,-2.24
2023-01-20T18:40:10.925Z,-2.21
2023-01-20T18:42:38.747Z,-2.19
2023-01-20T18:45:08.933Z,-2.20
2023-01-20T18:47:36.759Z,-2.31
2023-01-20T18:50:05.018Z,-2.16
2023-01-20T18:52:34.209Z,-2.11
2023-01-20T18:55:02.122Z,-2.00
2023-01-20T18:57:29.987Z,-1.85
2023-01-20T18:59:57.972Z,-1.70
2023-01-20T19:02:26.986Z,-1.73
2023-01-20T19:04:54.868Z,-1.84
2023-01-20T19:07:22.733Z,-1.98
2023-01-20T19:09:52.084Z,-1.95
2023-01-20T19:12:19.894Z,-2.02
2023-01-20T19:14:47.681Z,-1.81
2023-01-20T19:17:15.650Z,-1.89
2023-01-20T19:19:47.889Z,-2.01
2023-01-20T19:22:15.761Z,-2.18
2023-01-20T19:24:43.632Z,-2.11
2023-01-20T19:27:12.815Z,-1.69
2023-01-20T19:29:41.495Z,-1.83
2023-01-20T19:32:09.390Z,-1.88
2023-01-20T19:34:37.475Z,-1.95
2023-01-20T19:37:05.277Z,-1.96
2023-01-20T19:39:33.115Z,-2.01
2023-01-20T19:42:00.878Z,-1.98
2023-01-20T19:44:30.451Z,-1.99
2023-01-20T19:47:03.996Z,-2.10
2023-01-20T19:49:31.830Z,-2.23
2023-01-20T19:52:00.778Z,-2.29
2023-01-20T19:54:31.039Z,-2.44
2023-01-20T19:56:58.807Z,-2.45
2023-01-20T19:59:26.831Z,-2.51
2023-01-20T20:01:56.343Z,-2.42
2023-01-20T20:04:25.489Z,-2.43
2023-01-20T20:06:53.280Z,-2.30
2023-01-20T20:09:23.579Z,-2.28
2023-01-20T20:11:51.755Z,-1.96
2023-01-20T20:14:20.814Z,-2.08
2023-01-20T20:16:49.213Z,-1.94
2023-01-20T20:19:20.229Z,-2.16
2023-01-20T20:21:48.204Z,-1.95
2023-01-20T20:24:17.792Z,-1.94
2023-01-20T20:26:46.784Z,-1.53
2023-01-20T20:29:16.109Z,-2.05
2023-01-20T20:31:44.108Z,-2.09
2023-01-20T20:34:14.436Z,-2.09
2023-01-20T20:36:43.847Z,-2.13
2023-01-20T20:39:14.359Z,-2.22
2023-01-20T20:41:42.370Z,-2.48
2023-01-20T20:44:10.744Z,-2.50
2023-01-20T20:46:38.851Z,-2.70
2023-01-20T20:49:06.916Z,-2.11
2023-01-20T20:51:35.445Z,-2.02
2023-01-20T20:54:04.991Z,-1.89
2023-01-20T20:56:33.267Z,-1.88
2023-01-20T20:59:03.432Z,-1.98
2023-01-20T21:01:32.727Z,-2.13
2023-01-20T21:04:00.981Z,-2.16
2023-01-20T21:06:29.431Z,-2.33
2023-01-20T21:08:58.566Z,-2.27
2023-01-20T21:11:28.461Z,-2.28
2023-01-20T21:13:56.930Z,-1.99
2023-01-20T21:16:26.220Z,-2.17
2023-01-20T21:19:00.132Z,-2.06
2023-01-20T21:24:21.165Z,-2.21
2023-01-20T21:26:58.110Z,-2.33
2023-01-20T21:29:27.568Z,-2.51
2023-01-20T21:31:55.889Z,-2.55
2023-01-20T21:34:25.601Z,-2.74
2023-01-20T21:36:53.886Z,-2.75
2023-01-20T21:39:21.875Z,-2.63
2023-01-20T21:41:51.250Z,-2.61
2023-01-20T21:44:29.657Z,-2.46
2023-01-20T21:46:58.198Z,-2.33
2023-01-20T21:49:46.289Z,-2.54
2023-01-20T21:52:33.458Z,-2.67
2023-01-20T21:55:01.631Z,-2.76
2023-01-20T21:57:32.731Z,-2.75
2023-01-20T22:00:01.279Z,-2.80
2023-01-20T22:02:30.039Z,-2.88
2023-01-20T22:05:00.302Z,-2.96
2023-01-20T22:07:30.445Z,-3.09
2023-01-20T22:09:58.451Z,-3.16
2023-01-20T22:12:26.443Z,-3.22
2023-01-20T22:14:56.074Z,-3.31
2023-01-20T22:17:24.450Z,-3.34
2023-01-20T22:19:52.403Z,-3.24
2023-01-20T22:22:21.325Z,-3.22
2023-01-20T22:24:49.324Z,-2.81
2023-01-20T22:27:17.600Z,-2.92
2023-01-20T22:29:45.695Z,-2.97
2023-01-20T22:32:15.234Z,-2.86
2023-01-20T22:34:43.385Z,-2.84
2023-01-20T22:37:11.360Z,-2.51
2023-01-20T22:39:39.438Z,-2.61
2023-01-20T22:42:08.168Z,-2.50
2023-01-20T22:44:35.912Z,-2.48
2023-01-20T22:47:05.815Z,-2.44
2023-01-20T22:49:35.110Z,-2.12
2023-01-20T22:52:03.081Z,-2.23
2023-01-20T22:54:31.015Z,-2.29
2023-01-20T22:56:59.039Z,-2.17
2023-01-20T22:59:27.207Z,-2.00
2023-01-20T23:01:55.207Z,-1.89
2023-01-20T23:04:24.712Z,-2.10
2023-01-20T23:06:54.156Z,-2.31
2023-01-20T23:09:22.354Z,-2.27
2023-01-20T23:11:51.028Z,-2.10
2023-01-20T23:14:38.935Z,-2.25
2023-01-20T23:17:09.917Z,-2.13
2023-01-20T23:19:37.888Z,-2.27
2023-01-20T23:22:07.036Z,-2.29
2023-01-20T23:24:35.035Z,-2.14
2023-01-20T23:27:03.180Z,-2.34
2023-01-20T23:29:31.103Z,-2.19
2023-01-20T23:32:02.612Z,-2.26
2023-01-20T23:34:30.849Z,-2.12
2023-01-20T23:37:00.963Z,-2.13
2023-01-20T23:39:30.421Z,-2.32
2023-01-20T23:42:01.521Z,-2.17
2023-01-20T23:44:29.785Z,-2.24
2023-01-20T23:46:57.722Z,-2.14
2023-01-20T23:49:27.450Z,-2.24
2023-01-20T23:51:55.606Z,-2.35
2023-01-20T23:54:23.681Z,-2.35
2023-01-20T23:56:53.035Z,-2.47
2023-01-20T23:59:21.086Z,-2.22
